Svitzer Stanlow — MLNF7 — position and weather

sailwx.info

Track history (hours):
 
Tides and Currents Weather Stations Pressure Air Temp Water Temp Dewpoint Dewpoint Depression Visibility Wind Speed Wind Dir Waves Ship Positions

Svitzer Stanlow

Last reported at 2016-May-06 04:31 UTC. Time now 2016-May-06 05:25 UTC.
Position N 53°23' W 003°00'.

Length 39 m.

Type: Tug. MMSI: 235010620.

Date/timePositionNaut miles runAvg speedWind from/ knotsBaromVisibWave heightAir tempDewpointWater temp
2016-May-06 04:31N 53°23' W 003°00'0 0.0
2016-May-06 03:31N 53°23' W 003°00'0 0.0
2016-May-06 02:31N 53°23' W 003°00'0 0.0
2016-May-06 01:31N 53°23' W 003°00'0 0.0
2016-May-06 00:31N 53°23' W 003°00'0 0.0
2016-May-05 23:31N 53°23' W 003°00'0 0.0
2016-May-05 22:31N 53°23' W 003°00'0 0.0
2016-May-05 21:31N 53°23' W 003°00'0 0.0
2016-May-05 20:31N 53°23' W 003°00'0 0.0
2016-May-05 19:31N 53°23' W 003°00'0 0.0
2016-May-05 18:31N 53°23' W 003°00'0 0.0
2016-May-05 17:31N 53°23' W 003°00'0 0.0
2016-May-05 16:31N 53°23' W 003°00'0 0.0
2016-May-05 15:31N 53°23' W 003°00'0 0.0
2016-May-05 14:31N 53°23' W 003°00'0 0.0
2016-May-05 13:31N 53°23' W 003°00'0 0.0
2016-May-05 12:31N 53°23' W 003°00'0 0.0
2016-May-05 11:31N 53°23' W 003°00'0 0.0
2016-May-05 10:31N 53°23' W 003°00'0 0.0
2016-May-05 09:31N 53°23' W 003°00'0 0.1
2016-May-05 08:33N 53°23' W 002°60'0 0.1
2016-May-05 07:32N 53°23' W 002°60'0 0.0
2016-May-05 06:29N 53°23' W 002°60'0 0.0
2016-May-05 05:32N 53°23' W 002°60'0 0.0
2016-May-05 04:32N 53°23' W 002°60'0 0.0
2016-May-05 03:29N 53°23' W 002°60'0 0.0
2016-May-05 02:32N 53°23' W 002°60'0 0.0
2016-May-05 01:32N 53°23' W 002°60'0 0.0
2016-May-05 00:26N 53°23' W 002°60'0 0.0
2016-May-04 23:32N 53°23' W 002°60'0 0.0
2016-May-04 22:32N 53°23' W 002°60'0 0.0
2016-May-04 21:29N 53°23' W 002°60'0 0.0
2016-May-04 20:32N 53°23' W 002°60'0 0.0
2016-May-04 19:32N 53°23' W 002°60'0 0.0
2016-May-04 18:32N 53°23' W 002°60'0 0.0
2016-May-04 17:32N 53°23' W 002°60'0 0.0
2016-May-04 16:32N 53°23' W 002°60'0 0.0
2016-May-04 15:29N 53°23' W 002°60'0 0.0
2016-May-04 14:32N 53°23' W 002°60'0 0.0
2016-May-04 13:32N 53°23' W 002°60'0 0.0
2016-May-04 12:32N 53°23' W 002°60'0 0.0
2016-May-04 11:20N 53°23' W 002°60'0 0.0
2016-May-04 10:32N 53°23' W 002°60'0 0.1
2016-May-04 09:31N 53°23' W 002°60'1 0.7
2016-May-04 08:33N 53°23' W 003°00'6 6.2
2016-May-04 07:33N 53°29' W 003°05'5 5.1
2016-May-04 06:33N 53°31' W 003°12'9 8.7
2016-May-04 05:33N 53°26' W 003°01'3 3.2
2016-May-04 04:32N 53°23' W 002°60'0 0.0
2016-May-04 03:32N 53°23' W 002°60'0 0.0
2016-May-04 02:32N 53°23' W 002°60'0 0.0
2016-May-04 01:29N 53°23' W 002°60'0 0.0
2016-May-04 00:32N 53°23' W 002°60'0 0.0
2016-May-03 23:32N 53°23' W 002°60'0 0.0
2016-May-03 22:32N 53°23' W 002°60'0 0.0
2016-May-03 21:32N 53°23' W 002°60'1 0.5
2016-May-03 20:32N 53°23' W 003°00'6 6.2
2016-May-03 19:33N 53°29' W 003°04'7 7.4
2016-May-03 18:33N 53°31' W 003°16'7 6.7
2016-May-03 17:33N 53°30' W 003°05'7 7.2
2016-May-03 16:31N 53°23' W 002°60'0 0.1
2016-May-03 15:32N 53°23' W 002°60'0 0.0
2016-May-03 14:32N 53°23' W 002°60'0 0.0
2016-May-03 13:29N 53°23' W 002°60'0 0.0
2016-May-03 12:32N 53°23' W 002°60'0 0.0
2016-May-03 11:32N 53°23' W 002°60'0 0.0
2016-May-03 10:32N 53°23' W 002°60'0 0.0
2016-May-03 09:29N 53°23' W 002°60'0 0.0
2016-May-03 08:32N 53°23' W 002°60'0 0.0
2016-May-03 07:32N 53°23' W 002°60'4 4.2
2016-May-03 06:33N 53°27' W 003°01'0 0.2
2016-May-03 05:33N 53°27' W 003°01'4 4.2
2016-May-03 04:33N 53°23' W 002°60'0 0.1
2016-May-03 03:31N 53°23' W 002°60'0 0.0
2016-May-03 02:31N 53°23' W 002°60'0 0.0
2016-May-03 01:31N 53°23' W 002°60'0 0.0
2016-May-03 00:31N 53°23' W 002°60'0 0.0
2016-May-02 23:31N 53°23' W 002°60'0 0.0
2016-May-02 22:31N 53°23' W 002°60'0 0.0
2016-May-02 21:31N 53°23' W 002°60'0 0.0
2016-May-02 20:28N 53°23' W 002°60'0 0.0
2016-May-02 19:31N 53°23' W 002°60'0 0.0
2016-May-02 18:31N 53°23' W 002°60'0 0.0
2016-May-02 17:31N 53°23' W 002°60'0 0.0
2016-May-02 16:31N 53°23' W 002°60'0 0.0
2016-May-02 15:31N 53°23' W 002°60'0 0.0
2016-May-02 14:31N 53°23' W 002°60'0 0.0
2016-May-02 13:31N 53°23' W 002°60'0 0.0
2016-May-02 12:31N 53°23' W 002°60'0 0.0
2016-May-02 11:31N 53°23' W 002°60'0 0.0
2016-May-02 10:31N 53°23' W 002°60'0 0.0
2016-May-02 09:31N 53°23' W 002°60'0 0.0
2016-May-02 08:31N 53°23' W 002°60'0 0.0
2016-May-02 07:31N 53°23' W 002°60'0 0.0
2016-May-02 06:31N 53°23' W 002°60'0 0.0
2016-May-02 05:31N 53°23' W 002°60'0 0.0
2016-May-02 04:34N 53°23' W 002°60'0 0.0
2016-May-02 03:33N 53°23' W 002°60'0 0.0
2016-May-02 02:33N 53°23' W 002°60'0 0.0
2016-May-02 01:33N 53°23' W 002°60'0 0.0
2016-May-02 00:33N 53°23' W 002°60'0 0.0
2016-May-01 23:33N 53°23' W 002°60'0 0.0
2016-May-01 22:33N 53°23' W 002°60'0 0.0
2016-May-01 21:30N 53°23' W 002°60'0 0.0
2016-May-01 20:33N 53°23' W 002°60'0 0.0
2016-May-01 19:33N 53°23' W 002°60'0 0.0
2016-May-01 18:33N 53°23' W 002°60'0 0.0
2016-May-01 17:33N 53°23' W 002°60'0 0.0
2016-May-01 16:30N 53°23' W 002°60'0 0.0
2016-May-01 15:33N 53°23' W 002°60'0 0.0
2016-May-01 14:33N 53°23' W 002°60'0 0.0
2016-May-01 13:33N 53°23' W 002°60'0 0.0
2016-May-01 12:33N 53°23' W 002°60'0 0.0
2016-May-01 11:33N 53°23' W 002°60'0 0.0
2016-May-01 10:33N 53°23' W 002°60'0 0.0
2016-May-01 09:30N 53°23' W 002°60'0 0.0
2016-May-01 08:33N 53°23' W 002°60'0 0.0
2016-May-01 07:33N 53°23' W 002°60'0 0.0
2016-May-01 06:33N 53°23' W 002°60'0 0.5
2016-May-01 05:33N 53°23' W 003°00'6 6.1
2016-May-01 04:33N 53°29' W 003°04'8 8.2
2016-May-01 03:34N 53°31' W 003°17'5 5.3
2016-May-01 02:33N 53°32' W 003°08'7 6.9
2016-May-01 01:32N 53°26' W 003°01'1 1.0
2016-May-01 00:32N 53°25' W 003°00'0 0.0
2016-Apr-30 23:32N 53°25' W 003°00'0 0.0
2016-Apr-30 22:32N 53°25' W 003°00'0 0.0
2016-Apr-30 21:32N 53°25' W 003°00'0 0.0
2016-Apr-30 20:32N 53°25' W 003°00'0 0.0
2016-Apr-30 19:29N 53°25' W 003°00'0 0.0
2016-Apr-30 18:32N 53°25' W 003°00'0 0.0
2016-Apr-30 17:32N 53°25' W 003°00'0 0.0
2016-Apr-30 16:32N 53°25' W 003°00'2 2.2
2016-Apr-30 15:32N 53°28' W 003°01'0 0.1
2016-Apr-30 14:32N 53°28' W 003°01'2 2.3
2016-Apr-30 13:32N 53°25' W 003°00'0 0.0
2016-Apr-30 12:32N 53°25' W 003°00'0 0.0
2016-Apr-30 11:29N 53°25' W 003°00'0 0.0
2016-Apr-30 10:32N 53°25' W 003°00'0 0.0
2016-Apr-30 09:29N 53°25' W 003°00'0 0.0
2016-Apr-30 08:32N 53°25' W 003°00'0 0.0
2016-Apr-30 07:32N 53°25' W 003°00'0 0.0
2016-Apr-30 06:29N 53°25' W 003°00'0 0.0
2016-Apr-30 05:32N 53°25' W 003°00'0 0.0
2016-Apr-30 04:32N 53°25' W 003°00'0 0.0
2016-Apr-30 03:32N 53°25' W 003°00'0 0.0
2016-Apr-30 02:32N 53°25' W 003°00'0 0.0
2016-Apr-30 01:32N 53°25' W 003°00'0 0.0
2016-Apr-30 00:32N 53°25' W 003°00'2 1.7
2016-Apr-29 23:31N 53°27' W 003°01'0 0.3
2016-Apr-29 22:33N 53°27' W 003°02'2 2.2
2016-Apr-29 21:33N 53°25' W 003°00'2 2.0
2016-Apr-29 20:33N 53°23' W 003°00'0 0.0
2016-Apr-29 19:33N 53°23' W 003°00'0 0.0
2016-Apr-29 18:30N 53°23' W 003°00'0 0.0
2016-Apr-29 17:33N 53°23' W 003°00'0 0.0
2016-Apr-29 16:33N 53°23' W 003°00'0 0.0
2016-Apr-29 15:33N 53°23' W 003°00'0 0.0
2016-Apr-29 14:33N 53°23' W 003°00'0 0.2
2016-Apr-29 13:32N 53°23' W 002°60'0 0.0
2016-Apr-29 12:32N 53°23' W 002°60'0 0.0
2016-Apr-29 11:32N 53°23' W 002°60'0 0.0
2016-Apr-29 10:32N 53°23' W 002°60'0 0.0
2016-Apr-29 09:29N 53°23' W 002°60'0 0.0
2016-Apr-29 08:32N 53°23' W 002°60'0 0.0
2016-Apr-29 07:32N 53°23' W 002°60'0 0.0
2016-Apr-29 06:26N 53°23' W 002°60'0 0.3
2016-Apr-29 05:33N 53°23' W 002°60'0 0.1
2016-Apr-29 04:33N 53°23' W 002°60'0 0.3
2016-Apr-29 03:32N 53°23' W 002°60'0 0.0
2016-Apr-29 02:32N 53°23' W 002°60'0 0.0
2016-Apr-29 01:29N 53°23' W 002°60'0 0.0
2016-Apr-29 00:32N 53°23' W 002°60'0 0.0
2016-Apr-28 23:29N 53°23' W 002°60'0 0.0
2016-Apr-28 22:31N 53°23' W 002°60'0 0.0
2016-Apr-28 21:31N 53°23' W 002°60'0 0.0
2016-Apr-28 20:31N 53°23' W 002°60'0 0.0
2016-Apr-28 19:31N 53°23' W 002°60'0 0.0
2016-Apr-28 18:31N 53°23' W 002°60'0 0.0
2016-Apr-28 17:31N 53°23' W 002°60'0 0.0
2016-Apr-28 16:31N 53°23' W 002°60'0 0.0
2016-Apr-28 15:31N 53°23' W 002°60'0 0.0
2016-Apr-28 14:31N 53°23' W 002°60'0 0.0
2016-Apr-28 13:28N 53°23' W 002°60'0 0.0
2016-Apr-28 12:31N 53°23' W 002°60'0 0.0
2016-Apr-28 11:31N 53°23' W 002°60'0 0.0
2016-Apr-28 10:31N 53°23' W 002°60'0 0.0
2016-Apr-28 09:31N 53°23' W 002°60'0 0.0
2016-Apr-28 08:31N 53°23' W 002°60'0 0.0
2016-Apr-28 07:31N 53°23' W 002°60'0 0.0
2016-Apr-28 06:28N 53°23' W 002°60'0 0.0
2016-Apr-28 05:31N 53°23' W 002°60'0 0.0
2016-Apr-28 04:31N 53°23' W 002°60'0 0.0
2016-Apr-28 03:28N 53°23' W 002°60'0 0.3
2016-Apr-28 02:32N 53°23' W 003°00'3 2.7
2016-Apr-28 01:33N 53°25' W 003°01'9 9.0
2016-Apr-28 00:33N 53°31' W 003°12'3 3.0
2016-Apr-27 23:33N 53°31' W 003°07'9 9.4
2016-Apr-27 22:33N 53°23' W 002°60'0 0.5
2016-Apr-27 21:33N 53°23' W 002°60'0 0.0
2016-Apr-27 20:33N 53°23' W 002°60'0 0.0
2016-Apr-27 19:30N 53°23' W 002°60'0 0.0
2016-Apr-27 18:33N 53°23' W 002°60'0 0.0
2016-Apr-27 17:33N 53°23' W 002°60'0 0.0
2016-Apr-27 16:33N 53°23' W 002°60'0 0.0
2016-Apr-27 15:33N 53°23' W 002°60'4 4.3
2016-Apr-27 14:32N 53°27' W 003°01'2 1.6
2016-Apr-27 13:33N 53°28' W 003°03'6 5.6
2016-Apr-27 12:33N 53°23' W 002°60'0 0.0
2016-Apr-27 11:30N 53°23' W 002°60'0 0.0
2016-Apr-27 10:33N 53°23' W 002°60'0 0.0
2016-Apr-27 09:33N 53°23' W 002°60'0 0.0
2016-Apr-27 08:33N 53°23' W 002°60'0 0.0
2016-Apr-27 07:33N 53°23' W 002°60'0 0.0
2016-Apr-27 06:33N 53°23' W 002°60'0 0.0
2016-Apr-27 05:33N 53°23' W 002°60'0 0.0
2016-Apr-27 04:33N 53°23' W 002°60'0 0.0
2016-Apr-27 03:33N 53°23' W 002°60'0 0.0
2016-Apr-27 02:33N 53°23' W 002°60'0 0.3
2016-Apr-27 01:33N 53°23' W 003°00'4 4.5
2016-Apr-27 00:33N 53°27' W 003°02'9 8.7
2016-Apr-26 23:33N 53°31' W 003°15'6 6.1
2016-Apr-26 22:33N 53°30' W 003°05'8 7.8
2016-Apr-26 21:32N 53°23' W 002°60'0 0.2
2016-Apr-26 20:32N 53°23' W 003°00'0 0.0
2016-Apr-26 19:32N 53°23' W 003°00'0 0.0
2016-Apr-26 18:29N 53°23' W 003°00'0 0.0
2016-Apr-26 17:32N 53°23' W 003°00'0 0.0
2016-Apr-26 16:32N 53°23' W 003°00'0 0.0
2016-Apr-26 15:32N 53°23' W 003°00'0 0.0
2016-Apr-26 14:32N 53°23' W 003°00'0 0.0
2016-Apr-26 13:32N 53°23' W 003°00'0 0.0
2016-Apr-26 12:32N 53°23' W 003°00'0 0.0
2016-Apr-26 11:32N 53°23' W 003°00'0 0.0
2016-Apr-26 10:32N 53°23' W 003°00'0 0.0
2016-Apr-26 09:32N 53°23' W 003°00'0 0.0
2016-Apr-26 08:32N 53°23' W 003°00'0 0.0
2016-Apr-26 07:32N 53°23' W 003°00'0 0.0
2016-Apr-26 06:32N 53°23' W 003°00'0 0.0
2016-Apr-26 05:32N 53°23' W 003°00'  
Track history (hours):
 
Tides and Currents Weather Stations Pressure Air Temp Water Temp Dewpoint Dewpoint Depression Visibility Wind Speed Wind Dir Waves Ship Positions

Svitzer Stanlow

Last reported at 2016-May-06 04:31 UTC. Time now 2016-May-06 05:25 UTC.
Position N 53°23' W 003°00'.

Length 39 m.

Type: Tug. MMSI: 235010620.

Date/timePositionNaut miles runAvg speedWind from/ knotsBaromVisibWave heightAir tempDewpointWater temp
2016-May-06 04:31N 53°23' W 003°00'0 0.0
2016-May-06 03:31N 53°23' W 003°00'0 0.0
2016-May-06 02:31N 53°23' W 003°00'0 0.0
2016-May-06 01:31N 53°23' W 003°00'0 0.0
2016-May-06 00:31N 53°23' W 003°00'0 0.0
2016-May-05 23:31N 53°23' W 003°00'0 0.0
2016-May-05 22:31N 53°23' W 003°00'0 0.0
2016-May-05 21:31N 53°23' W 003°00'0 0.0
2016-May-05 20:31N 53°23' W 003°00'0 0.0
2016-May-05 19:31N 53°23' W 003°00'0 0.0
2016-May-05 18:31N 53°23' W 003°00'0 0.0
2016-May-05 17:31N 53°23' W 003°00'0 0.0
2016-May-05 16:31N 53°23' W 003°00'0 0.0
2016-May-05 15:31N 53°23' W 003°00'0 0.0
2016-May-05 14:31N 53°23' W 003°00'0 0.0
2016-May-05 13:31N 53°23' W 003°00'0 0.0
2016-May-05 12:31N 53°23' W 003°00'0 0.0
2016-May-05 11:31N 53°23' W 003°00'0 0.0
2016-May-05 10:31N 53°23' W 003°00'0 0.0
2016-May-05 09:31N 53°23' W 003°00'0 0.1
2016-May-05 08:33N 53°23' W 002°60'0 0.1
2016-May-05 07:32N 53°23' W 002°60'0 0.0
2016-May-05 06:29N 53°23' W 002°60'0 0.0
2016-May-05 05:32N 53°23' W 002°60'0 0.0
2016-May-05 04:32N 53°23' W 002°60'0 0.0
2016-May-05 03:29N 53°23' W 002°60'0 0.0
2016-May-05 02:32N 53°23' W 002°60'0 0.0
2016-May-05 01:32N 53°23' W 002°60'0 0.0
2016-May-05 00:26N 53°23' W 002°60'0 0.0
2016-May-04 23:32N 53°23' W 002°60'0 0.0
2016-May-04 22:32N 53°23' W 002°60'0 0.0
2016-May-04 21:29N 53°23' W 002°60'0 0.0
2016-May-04 20:32N 53°23' W 002°60'0 0.0
2016-May-04 19:32N 53°23' W 002°60'0 0.0
2016-May-04 18:32N 53°23' W 002°60'0 0.0
2016-May-04 17:32N 53°23' W 002°60'0 0.0
2016-May-04 16:32N 53°23' W 002°60'0 0.0
2016-May-04 15:29N 53°23' W 002°60'0 0.0
2016-May-04 14:32N 53°23' W 002°60'0 0.0
2016-May-04 13:32N 53°23' W 002°60'0 0.0
2016-May-04 12:32N 53°23' W 002°60'0 0.0
2016-May-04 11:20N 53°23' W 002°60'0 0.0
2016-May-04 10:32N 53°23' W 002°60'0 0.1
2016-May-04 09:31N 53°23' W 002°60'1 0.7
2016-May-04 08:33N 53°23' W 003°00'6 6.2
2016-May-04 07:33N 53°29' W 003°05'5 5.1
2016-May-04 06:33N 53°31' W 003°12'9 8.7
2016-May-04 05:33N 53°26' W 003°01'3 3.2
2016-May-04 04:32N 53°23' W 002°60'0 0.0
2016-May-04 03:32N 53°23' W 002°60'0 0.0
2016-May-04 02:32N 53°23' W 002°60'0 0.0
2016-May-04 01:29N 53°23' W 002°60'0 0.0
2016-May-04 00:32N 53°23' W 002°60'0 0.0
2016-May-03 23:32N 53°23' W 002°60'0 0.0
2016-May-03 22:32N 53°23' W 002°60'0 0.0
2016-May-03 21:32N 53°23' W 002°60'1 0.5
2016-May-03 20:32N 53°23' W 003°00'6 6.2
2016-May-03 19:33N 53°29' W 003°04'7 7.4
2016-May-03 18:33N 53°31' W 003°16'7 6.7
2016-May-03 17:33N 53°30' W 003°05'7 7.2
2016-May-03 16:31N 53°23' W 002°60'0 0.1
2016-May-03 15:32N 53°23' W 002°60'0 0.0
2016-May-03 14:32N 53°23' W 002°60'0 0.0
2016-May-03 13:29N 53°23' W 002°60'0 0.0
2016-May-03 12:32N 53°23' W 002°60'0 0.0
2016-May-03 11:32N 53°23' W 002°60'0 0.0
2016-May-03 10:32N 53°23' W 002°60'0 0.0
2016-May-03 09:29N 53°23' W 002°60'0 0.0
2016-May-03 08:32N 53°23' W 002°60'0 0.0
2016-May-03 07:32N 53°23' W 002°60'4 4.2
2016-May-03 06:33N 53°27' W 003°01'0 0.2
2016-May-03 05:33N 53°27' W 003°01'4 4.2
2016-May-03 04:33N 53°23' W 002°60'0 0.1
2016-May-03 03:31N 53°23' W 002°60'0 0.0
2016-May-03 02:31N 53°23' W 002°60'0 0.0
2016-May-03 01:31N 53°23' W 002°60'0 0.0
2016-May-03 00:31N 53°23' W 002°60'0 0.0
2016-May-02 23:31N 53°23' W 002°60'0 0.0
2016-May-02 22:31N 53°23' W 002°60'0 0.0
2016-May-02 21:31N 53°23' W 002°60'0 0.0
2016-May-02 20:28N 53°23' W 002°60'0 0.0
2016-May-02 19:31N 53°23' W 002°60'0 0.0
2016-May-02 18:31N 53°23' W 002°60'0 0.0
2016-May-02 17:31N 53°23' W 002°60'0 0.0
2016-May-02 16:31N 53°23' W 002°60'0 0.0
2016-May-02 15:31N 53°23' W 002°60'0 0.0
2016-May-02 14:31N 53°23' W 002°60'0 0.0
2016-May-02 13:31N 53°23' W 002°60'0 0.0
2016-May-02 12:31N 53°23' W 002°60'0 0.0
2016-May-02 11:31N 53°23' W 002°60'0 0.0
2016-May-02 10:31N 53°23' W 002°60'0 0.0
2016-May-02 09:31N 53°23' W 002°60'0 0.0
2016-May-02 08:31N 53°23' W 002°60'0 0.0
2016-May-02 07:31N 53°23' W 002°60'0 0.0
2016-May-02 06:31N 53°23' W 002°60'0 0.0
2016-May-02 05:31N 53°23' W 002°60'0 0.0
2016-May-02 04:34N 53°23' W 002°60'0 0.0
2016-May-02 03:33N 53°23' W 002°60'0 0.0
2016-May-02 02:33N 53°23' W 002°60'0 0.0
2016-May-02 01:33N 53°23' W 002°60'0 0.0
2016-May-02 00:33N 53°23' W 002°60'0 0.0
2016-May-01 23:33N 53°23' W 002°60'0 0.0
2016-May-01 22:33N 53°23' W 002°60'0 0.0
2016-May-01 21:30N 53°23' W 002°60'0 0.0
2016-May-01 20:33N 53°23' W 002°60'0 0.0
2016-May-01 19:33N 53°23' W 002°60'0 0.0
2016-May-01 18:33N 53°23' W 002°60'0 0.0
2016-May-01 17:33N 53°23' W 002°60'0 0.0
2016-May-01 16:30N 53°23' W 002°60'0 0.0
2016-May-01 15:33N 53°23' W 002°60'0 0.0
2016-May-01 14:33N 53°23' W 002°60'0 0.0
2016-May-01 13:33N 53°23' W 002°60'0 0.0
2016-May-01 12:33N 53°23' W 002°60'0 0.0
2016-May-01 11:33N 53°23' W 002°60'0 0.0
2016-May-01 10:33N 53°23' W 002°60'0 0.0
2016-May-01 09:30N 53°23' W 002°60'0 0.0
2016-May-01 08:33N 53°23' W 002°60'0 0.0
2016-May-01 07:33N 53°23' W 002°60'0 0.0
2016-May-01 06:33N 53°23' W 002°60'0 0.5
2016-May-01 05:33N 53°23' W 003°00'6 6.1
2016-May-01 04:33N 53°29' W 003°04'8 8.2
2016-May-01 03:34N 53°31' W 003°17'5 5.3
2016-May-01 02:33N 53°32' W 003°08'7 6.9
2016-May-01 01:32N 53°26' W 003°01'1 1.0
2016-May-01 00:32N 53°25' W 003°00'0 0.0
2016-Apr-30 23:32N 53°25' W 003°00'0 0.0
2016-Apr-30 22:32N 53°25' W 003°00'0 0.0
2016-Apr-30 21:32N 53°25' W 003°00'0 0.0
2016-Apr-30 20:32N 53°25' W 003°00'0 0.0
2016-Apr-30 19:29N 53°25' W 003°00'0 0.0
2016-Apr-30 18:32N 53°25' W 003°00'0 0.0
2016-Apr-30 17:32N 53°25' W 003°00'0 0.0
2016-Apr-30 16:32N 53°25' W 003°00'2 2.2
2016-Apr-30 15:32N 53°28' W 003°01'0 0.1
2016-Apr-30 14:32N 53°28' W 003°01'2 2.3
2016-Apr-30 13:32N 53°25' W 003°00'0 0.0
2016-Apr-30 12:32N 53°25' W 003°00'0 0.0
2016-Apr-30 11:29N 53°25' W 003°00'0 0.0
2016-Apr-30 10:32N 53°25' W 003°00'0 0.0
2016-Apr-30 09:29N 53°25' W 003°00'0 0.0
2016-Apr-30 08:32N 53°25' W 003°00'0 0.0
2016-Apr-30 07:32N 53°25' W 003°00'0 0.0
2016-Apr-30 06:29N 53°25' W 003°00'0 0.0
2016-Apr-30 05:32N 53°25' W 003°00'0 0.0
2016-Apr-30 04:32N 53°25' W 003°00'0 0.0
2016-Apr-30 03:32N 53°25' W 003°00'0 0.0
2016-Apr-30 02:32N 53°25' W 003°00'0 0.0
2016-Apr-30 01:32N 53°25' W 003°00'0 0.0
2016-Apr-30 00:32N 53°25' W 003°00'2 1.7
2016-Apr-29 23:31N 53°27' W 003°01'0 0.3
2016-Apr-29 22:33N 53°27' W 003°02'2 2.2
2016-Apr-29 21:33N 53°25' W 003°00'2 2.0
2016-Apr-29 20:33N 53°23' W 003°00'0 0.0
2016-Apr-29 19:33N 53°23' W 003°00'0 0.0
2016-Apr-29 18:30N 53°23' W 003°00'0 0.0
2016-Apr-29 17:33N 53°23' W 003°00'0 0.0
2016-Apr-29 16:33N 53°23' W 003°00'0 0.0
2016-Apr-29 15:33N 53°23' W 003°00'0 0.0
2016-Apr-29 14:33N 53°23' W 003°00'0 0.2
2016-Apr-29 13:32N 53°23' W 002°60'0 0.0
2016-Apr-29 12:32N 53°23' W 002°60'0 0.0
2016-Apr-29 11:32N 53°23' W 002°60'0 0.0
2016-Apr-29 10:32N 53°23' W 002°60'0 0.0
2016-Apr-29 09:29N 53°23' W 002°60'0 0.0
2016-Apr-29 08:32N 53°23' W 002°60'0 0.0
2016-Apr-29 07:32N 53°23' W 002°60'0 0.0
2016-Apr-29 06:26N 53°23' W 002°60'0 0.3
2016-Apr-29 05:33N 53°23' W 002°60'0 0.1
2016-Apr-29 04:33N 53°23' W 002°60'0 0.3
2016-Apr-29 03:32N 53°23' W 002°60'0 0.0
2016-Apr-29 02:32N 53°23' W 002°60'0 0.0
2016-Apr-29 01:29N 53°23' W 002°60'0 0.0
2016-Apr-29 00:32N 53°23' W 002°60'0 0.0
2016-Apr-28 23:29N 53°23' W 002°60'0 0.0
2016-Apr-28 22:31N 53°23' W 002°60'0 0.0
2016-Apr-28 21:31N 53°23' W 002°60'0 0.0
2016-Apr-28 20:31N 53°23' W 002°60'0 0.0
2016-Apr-28 19:31N 53°23' W 002°60'0 0.0
2016-Apr-28 18:31N 53°23' W 002°60'0 0.0
2016-Apr-28 17:31N 53°23' W 002°60'0 0.0
2016-Apr-28 16:31N 53°23' W 002°60'0 0.0
2016-Apr-28 15:31N 53°23' W 002°60'0 0.0
2016-Apr-28 14:31N 53°23' W 002°60'0 0.0
2016-Apr-28 13:28N 53°23' W 002°60'0 0.0
2016-Apr-28 12:31N 53°23' W 002°60'0 0.0
2016-Apr-28 11:31N 53°23' W 002°60'0 0.0
2016-Apr-28 10:31N 53°23' W 002°60'0 0.0
2016-Apr-28 09:31N 53°23' W 002°60'0 0.0
2016-Apr-28 08:31N 53°23' W 002°60'0 0.0
2016-Apr-28 07:31N 53°23' W 002°60'0 0.0
2016-Apr-28 06:28N 53°23' W 002°60'0 0.0
2016-Apr-28 05:31N 53°23' W 002°60'0 0.0
2016-Apr-28 04:31N 53°23' W 002°60'0 0.0
2016-Apr-28 03:28N 53°23' W 002°60'0 0.3
2016-Apr-28 02:32N 53°23' W 003°00'3 2.7
2016-Apr-28 01:33N 53°25' W 003°01'9 9.0
2016-Apr-28 00:33N 53°31' W 003°12'3 3.0
2016-Apr-27 23:33N 53°31' W 003°07'9 9.4
2016-Apr-27 22:33N 53°23' W 002°60'0 0.5
2016-Apr-27 21:33N 53°23' W 002°60'0 0.0
2016-Apr-27 20:33N 53°23' W 002°60'0 0.0
2016-Apr-27 19:30N 53°23' W 002°60'0 0.0
2016-Apr-27 18:33N 53°23' W 002°60'0 0.0
2016-Apr-27 17:33N 53°23' W 002°60'0 0.0
2016-Apr-27 16:33N 53°23' W 002°60'0 0.0
2016-Apr-27 15:33N 53°23' W 002°60'4 4.3
2016-Apr-27 14:32N 53°27' W 003°01'2 1.6
2016-Apr-27 13:33N 53°28' W 003°03'6 5.6
2016-Apr-27 12:33N 53°23' W 002°60'0 0.0
2016-Apr-27 11:30N 53°23' W 002°60'0 0.0
2016-Apr-27 10:33N 53°23' W 002°60'0 0.0
2016-Apr-27 09:33N 53°23' W 002°60'0 0.0
2016-Apr-27 08:33N 53°23' W 002°60'0 0.0
2016-Apr-27 07:33N 53°23' W 002°60'0 0.0
2016-Apr-27 06:33N 53°23' W 002°60'0 0.0
2016-Apr-27 05:33N 53°23' W 002°60'0 0.0
2016-Apr-27 04:33N 53°23' W 002°60'0 0.0
2016-Apr-27 03:33N 53°23' W 002°60'0 0.0
2016-Apr-27 02:33N 53°23' W 002°60'0 0.3
2016-Apr-27 01:33N 53°23' W 003°00'4 4.5
2016-Apr-27 00:33N 53°27' W 003°02'9 8.7
2016-Apr-26 23:33N 53°31' W 003°15'6 6.1
2016-Apr-26 22:33N 53°30' W 003°05'8 7.8
2016-Apr-26 21:32N 53°23' W 002°60'0 0.2
2016-Apr-26 20:32N 53°23' W 003°00'0 0.0
2016-Apr-26 19:32N 53°23' W 003°00'0 0.0
2016-Apr-26 18:29N 53°23' W 003°00'0 0.0
2016-Apr-26 17:32N 53°23' W 003°00'0 0.0
2016-Apr-26 16:32N 53°23' W 003°00'0 0.0
2016-Apr-26 15:32N 53°23' W 003°00'0 0.0
2016-Apr-26 14:32N 53°23' W 003°00'0 0.0
2016-Apr-26 13:32N 53°23' W 003°00'0 0.0
2016-Apr-26 12:32N 53°23' W 003°00'0 0.0
2016-Apr-26 11:32N 53°23' W 003°00'0 0.0
2016-Apr-26 10:32N 53°23' W 003°00'0 0.0
2016-Apr-26 09:32N 53°23' W 003°00'0 0.0
2016-Apr-26 08:32N 53°23' W 003°00'0 0.0
2016-Apr-26 07:32N 53°23' W 003°00'0 0.0
2016-Apr-26 06:32N 53°23' W 003°00'0 0.0
2016-Apr-26 05:32N 53°23' W 003°00'  

Dump ship's entire track history